createdAt,value
2018-05-21T00:00:13.762Z,0
2018-05-21T00:01:14.300Z,0
2018-05-21T00:02:14.059Z,0
2018-05-21T00:03:14.088Z,0
2018-05-21T00:04:14.361Z,0
2018-05-21T00:05:14.127Z,0
2018-05-21T00:06:14.406Z,0
2018-05-21T00:07:13.922Z,0
2018-05-21T00:08:14.263Z,0
2018-05-21T00:09:14.225Z,0
2018-05-21T00:10:14.495Z,0
2018-05-21T00:11:14.521Z,0
2018-05-21T00:12:14.304Z,0
2018-05-21T00:13:14.373Z,0
2018-05-21T00:14:14.669Z,0
2018-05-21T00:15:14.358Z,0
2018-05-21T00:16:14.126Z,0
2018-05-21T00:17:14.404Z,0
2018-05-21T00:18:14.704Z,0
2018-05-21T00:19:14.704Z,0
2018-05-21T00:20:14.723Z,0
2018-05-21T00:21:14.487Z,0
2018-05-21T00:22:14.370Z,0
2018-05-21T00:23:14.794Z,0
2018-05-21T00:24:14.575Z,0
2018-05-21T00:25:14.885Z,0
2018-05-21T00:26:14.357Z,0
2018-05-21T00:27:14.875Z,0
2018-05-21T00:28:14.955Z,0
2018-05-21T00:29:14.920Z,0
2018-05-21T00:30:14.708Z,0
2018-05-21T00:31:14.724Z,0
2018-05-21T00:32:14.988Z,0
2018-05-21T00:33:15.006Z,0
2018-05-21T00:34:15.070Z,0
2018-05-21T00:35:15.066Z,0
2018-05-21T00:36:14.880Z,0
2018-05-21T00:37:15.098Z,0
2018-05-21T00:38:15.141Z,0
2018-05-21T00:39:15.150Z,0
2018-05-21T00:40:15.170Z,0
2018-05-21T00:41:14.688Z,0
2018-05-21T00:42:14.959Z,0
2018-05-21T00:43:15.282Z,0
2018-05-21T00:44:15.265Z,0
2018-05-21T00:45:15.028Z,0
2018-05-21T00:46:15.306Z,0
2018-05-21T00:47:15.329Z,0
2018-05-21T00:48:15.345Z,0
2018-05-21T00:49:15.363Z,0
2018-05-21T00:50:15.403Z,0
2018-05-21T00:51:15.426Z,0
2018-05-21T00:52:15.430Z,0
2018-05-21T00:53:15.456Z,0
2018-05-21T00:54:15.481Z,0
2018-05-21T00:55:15.502Z,0
2018-05-21T00:56:15.517Z,0
2018-05-21T00:57:15.295Z,0
2018-05-21T00:58:15.367Z,0
2018-05-21T00:59:15.336Z,0
2018-05-21T01:00:15.599Z,0
2018-05-21T01:01:15.382Z,0
2018-05-21T01:02:15.406Z,0
2018-05-21T01:03:15.670Z,0
2018-05-21T01:04:15.702Z,0
2018-05-21T01:05:15.721Z,0
2018-05-21T01:06:15.727Z,0
2018-05-21T01:07:15.495Z,0
2018-05-21T01:08:15.519Z,0
2018-05-21T01:09:15.533Z,0
2018-05-21T01:10:15.809Z,0
2018-05-21T01:11:15.846Z,0
2018-05-21T01:12:15.876Z,0
2018-05-21T01:13:15.944Z,0
2018-05-21T01:14:15.670Z,0
2018-05-21T01:15:15.427Z,0
2018-05-21T01:16:15.957Z,0
2018-05-21T01:17:15.984Z,0
2018-05-21T01:18:15.764Z,0
2018-05-21T01:19:15.518Z,0
2018-05-21T01:20:16.044Z,0
2018-05-21T01:21:16.071Z,0
2018-05-21T01:22:16.097Z,0
2018-05-21T01:23:15.856Z,0
2018-05-21T01:24:16.144Z,0
2018-05-21T01:25:15.646Z,0
2018-05-21T01:26:16.271Z,0
2018-05-21T01:27:16.209Z,0
2018-05-21T01:28:16.014Z,0
2018-05-21T01:29:16.240Z,0
2018-05-21T01:30:16.011Z,0
2018-05-21T01:31:16.039Z,0
2018-05-21T01:32:16.057Z,0
2018-05-21T01:33:16.430Z,0
2018-05-21T01:34:16.353Z,0
2018-05-21T01:35:16.131Z,0
2018-05-21T01:36:16.143Z,0
2018-05-21T01:37:15.911Z,0
2018-05-21T01:38:16.451Z,0
2018-05-21T01:39:16.463Z,0
2018-05-21T01:40:16.498Z,0
2018-05-21T01:41:16.267Z,0
2018-05-21T01:42:16.532Z,0
2018-05-21T01:43:16.345Z,0
2018-05-21T01:44:16.317Z,0
2018-05-21T01:45:16.340Z,0
2018-05-21T01:46:16.360Z,0
2018-05-21T01:47:16.134Z,0
2018-05-21T01:48:16.655Z,0
2018-05-21T01:49:16.422Z,0
2018-05-21T01:50:16.455Z,0
2018-05-21T01:51:16.219Z,0
2018-05-21T01:52:16.500Z,0
2018-05-21T01:53:16.780Z,0
2018-05-21T01:54:16.542Z,0
2018-05-21T01:55:16.304Z,0
2018-05-21T01:56:16.837Z,0
2018-05-21T01:57:16.857Z,0
2018-05-21T01:58:16.671Z,0
2018-05-21T01:59:16.643Z,0
2018-05-21T02:00:16.665Z,0
2018-05-21T02:01:16.932Z,0
2018-05-21T02:02:16.693Z,0
2018-05-21T02:03:16.975Z,0
2018-05-21T02:04:16.481Z,0
2018-05-21T02:05:16.765Z,0
2018-05-21T02:06:17.049Z,0
2018-05-21T02:07:16.800Z,0
2018-05-21T02:08:16.969Z,0
2018-05-21T02:09:16.842Z,0
2018-05-21T02:10:17.133Z,0
2018-05-21T02:11:16.888Z,0
2018-05-21T02:12:16.907Z,0
2018-05-21T02:13:17.003Z,0
2018-05-21T02:14:17.227Z,0
2018-05-21T02:15:16.993Z,0
2018-05-21T02:16:16.761Z,0
2018-05-21T02:17:17.036Z,0
2018-05-21T02:18:17.310Z,0
2018-05-21T02:19:17.334Z,0
2018-05-21T02:20:17.105Z,0
2018-05-21T02:21:17.388Z,0
2018-05-21T02:22:17.399Z,0
2018-05-21T02:23:17.165Z,0
2018-05-21T02:24:17.186Z,0
2018-05-21T02:25:17.462Z,0
2018-05-21T02:26:17.229Z,0
2018-05-21T02:27:17.503Z,0
2018-05-21T02:28:17.319Z,0
2018-05-21T02:29:17.543Z,0
2018-05-21T02:30:17.080Z,0
2018-05-21T02:31:17.682Z,0
2018-05-21T02:32:17.613Z,0
2018-05-21T02:33:17.637Z,0
2018-05-21T02:34:17.408Z,0
2018-05-21T02:35:17.688Z,0
2018-05-21T02:36:17.201Z,0
2018-05-21T02:37:17.216Z,0
2018-05-21T02:38:17.338Z,0
2018-05-21T02:39:17.765Z,0
2018-05-21T02:40:17.781Z,0
2018-05-21T02:41:17.552Z,0
2018-05-21T02:42:17.843Z,0
2018-05-21T02:43:17.919Z,4
2018-05-21T02:44:17.873Z,4
2018-05-21T02:45:17.878Z,4
2018-05-21T02:46:17.901Z,4
2018-05-21T02:47:17.674Z,4
2018-05-21T02:48:17.696Z,4
2018-05-21T02:49:17.721Z,4
2018-05-21T02:50:18.046Z,4
2018-05-21T02:51:18.016Z,4
2018-05-21T02:52:18.034Z,4
2018-05-21T02:53:17.856Z,4
2018-05-21T02:54:18.084Z,0
2018-05-21T02:55:17.851Z,4
2018-05-21T02:56:17.870Z,4
2018-05-21T02:57:17.908Z,4
2018-05-21T02:58:18.211Z,8
2018-05-21T02:59:17.946Z,4
2018-05-21T03:00:17.957Z,8
2018-05-21T03:01:18.053Z,4
2018-05-21T03:02:18.265Z,8
2018-05-21T03:03:18.338Z,8
2018-05-21T03:04:18.311Z,12
2018-05-21T03:05:18.069Z,12
2018-05-21T03:06:18.089Z,12
2018-05-21T03:07:18.105Z,16
2018-05-21T03:08:18.384Z,20
2018-05-21T03:09:18.163Z,20
2018-05-21T03:10:18.182Z,24
2018-05-21T03:11:18.196Z,24
2018-05-21T03:12:18.474Z,28
2018-05-21T03:13:18.237Z,32
2018-05-21T03:14:18.510Z,40
2018-05-21T03:15:18.534Z,44
2018-05-21T03:16:18.305Z,48
2018-05-21T03:17:18.045Z,56
2018-05-21T03:18:18.660Z,60
2018-05-21T03:19:18.590Z,72
2018-05-21T03:20:18.359Z,80
2018-05-21T03:21:18.377Z,88
2018-05-21T03:22:18.397Z,100
2018-05-21T03:23:18.750Z,112
2018-05-21T03:24:18.694Z,124
2018-05-21T03:25:18.494Z,136
2018-05-21T03:26:18.767Z,152
2018-05-21T03:27:18.790Z,168
2018-05-21T03:28:18.307Z,188
2018-05-21T03:29:18.815Z,204
2018-05-21T03:30:18.840Z,224
2018-05-21T03:31:18.879Z,240
2018-05-21T03:32:18.878Z,264
2018-05-21T03:33:18.954Z,288
2018-05-21T03:34:18.933Z,308
2018-05-21T03:35:18.723Z,332
2018-05-21T03:36:18.724Z,356
2018-05-21T03:37:19.000Z,380
2018-05-21T03:38:18.768Z,408
2018-05-21T03:39:18.532Z,436
2018-05-21T03:40:18.809Z,460
2018-05-21T03:41:19.149Z,488
2018-05-21T03:42:19.110Z,516
2018-05-21T03:43:19.136Z,544
2018-05-21T03:44:18.649Z,576
2018-05-21T03:45:19.171Z,604
2018-05-21T03:46:18.936Z,636
2018-05-21T03:47:19.213Z,664
2018-05-21T03:48:19.286Z,696
2018-05-21T03:49:19.252Z,728
2018-05-21T03:50:19.022Z,760
2018-05-21T03:51:19.289Z,792
2018-05-21T03:52:19.308Z,824
2018-05-21T03:53:19.330Z,856
2018-05-21T03:54:19.098Z,888
2018-05-21T03:55:19.126Z,920
2018-05-21T03:56:19.143Z,952
2018-05-21T03:57:19.435Z,988
2018-05-21T03:58:19.186Z,1020
2018-05-21T03:59:18.954Z,1056
2018-05-21T04:00:19.278Z,1088
2018-05-21T04:01:19.506Z,1124
2018-05-21T04:02:19.527Z,1156
2018-05-21T04:03:19.345Z,1192
2018-05-21T04:04:19.310Z,1228
2018-05-21T04:05:19.333Z,1260
2018-05-21T04:06:19.609Z,1300
2018-05-21T04:07:19.627Z,1332
2018-05-21T04:08:19.404Z,1368
2018-05-21T04:09:19.674Z,1408
2018-05-21T04:10:19.687Z,1444
2018-05-21T04:11:19.719Z,1480
2018-05-21T04:12:19.742Z,1516
2018-05-21T04:13:19.508Z,1552
2018-05-21T04:14:19.535Z,1588
2018-05-21T04:15:19.812Z,1624
2018-05-21T04:16:19.568Z,1660
2018-05-21T04:17:19.849Z,1696
2018-05-21T04:18:19.933Z,1732
2018-05-21T04:19:19.887Z,1768
2018-05-21T04:20:19.971Z,1808
2018-05-21T04:21:19.933Z,1844
2018-05-21T04:22:19.696Z,1876
2018-05-21T04:23:19.720Z,1912
2018-05-21T04:24:19.739Z,1948
2018-05-21T04:25:20.002Z,1984
2018-05-21T04:26:19.777Z,2016
2018-05-21T04:27:20.045Z,2048
2018-05-21T04:28:19.813Z,2080
2018-05-21T04:29:19.848Z,2112
2018-05-21T04:30:19.858Z,2144
2018-05-21T04:31:19.623Z,2176
2018-05-21T04:32:20.177Z,2216
2018-05-21T04:33:19.975Z,2248
2018-05-21T04:34:20.204Z,2280
2018-05-21T04:35:20.262Z,2312
2018-05-21T04:36:20.140Z,2348
2018-05-21T04:37:20.259Z,2380
2018-05-21T04:38:20.028Z,2416
2018-05-21T04:39:20.050Z,2452
2018-05-21T04:40:20.328Z,2488
2018-05-21T04:41:20.359Z,2528
2018-05-21T04:42:20.385Z,2560
2018-05-21T04:43:20.402Z,2600
2018-05-21T04:44:20.176Z,2628
2018-05-21T04:45:19.947Z,2664
2018-05-21T04:46:20.210Z,2696
2018-05-21T04:47:20.492Z,2732
2018-05-21T04:48:20.558Z,2764
2018-05-21T04:49:20.524Z,2804
2018-05-21T04:50:20.545Z,2836
2018-05-21T04:51:20.313Z,2864
2018-05-21T04:52:20.591Z,2896
2018-05-21T04:53:20.362Z,2932
2018-05-21T04:54:20.384Z,2972
2018-05-21T04:55:20.654Z,3008
2018-05-21T04:56:20.686Z,3048
2018-05-21T04:57:20.695Z,3084
2018-05-21T04:58:20.718Z,3116
2018-05-21T04:59:20.769Z,3148
2018-05-21T05:00:20.511Z,3184
2018-05-21T05:01:20.546Z,3212
2018-05-21T05:02:20.808Z,3256
2018-05-21T05:03:20.376Z,3296
2018-05-21T05:04:20.861Z,3332
2018-05-21T05:05:20.622Z,3364
2018-05-21T05:06:20.644Z,3396
2018-05-21T05:07:20.656Z,3432
2018-05-21T05:08:20.956Z,3464
2018-05-21T05:09:20.955Z,3500
2018-05-21T05:10:20.967Z,3540
2018-05-21T05:11:20.994Z,3572
2018-05-21T05:12:21.034Z,3608
2018-05-21T05:13:21.045Z,3640
2018-05-21T05:14:21.073Z,3676
2018-05-21T05:15:20.854Z,3708
2018-05-21T05:16:20.861Z,3740
2018-05-21T05:17:21.125Z,3776
2018-05-21T05:18:20.947Z,3816
2018-05-21T05:19:20.931Z,3848
2018-05-21T05:20:20.931Z,3888
2018-05-21T05:21:21.216Z,3912
2018-05-21T05:22:21.234Z,3936
2018-05-21T05:23:21.256Z,3956
2018-05-21T05:24:21.291Z,3992
2018-05-21T05:25:21.307Z,4020
2018-05-21T05:26:21.069Z,4040
2018-05-21T05:27:21.096Z,4072
2018-05-21T05:28:21.369Z,4092
2018-05-21T05:29:21.130Z,4124
2018-05-21T05:30:21.404Z,4156
2018-05-21T05:31:21.156Z,4172
2018-05-21T05:32:21.441Z,4216
2018-05-21T05:33:21.501Z,4236
2018-05-21T05:34:21.474Z,4268
2018-05-21T05:35:20.995Z,4304
2018-05-21T05:36:21.521Z,4320
2018-05-21T05:37:21.313Z,4344
2018-05-21T05:38:21.597Z,4380
2018-05-21T05:39:21.627Z,4400
2018-05-21T05:40:21.373Z,4416
2018-05-21T05:41:21.145Z,4444
2018-05-21T05:42:21.149Z,4472
2018-05-21T05:43:21.421Z,4508
2018-05-21T05:44:21.444Z,4528
2018-05-21T05:45:21.265Z,4552
2018-05-21T05:46:21.737Z,4576
2018-05-21T05:47:21.776Z,4600
2018-05-21T05:48:21.580Z,4628
2018-05-21T05:49:21.798Z,4652
2018-05-21T05:50:21.569Z,4668
2018-05-21T05:51:21.842Z,4696
2018-05-21T05:52:21.865Z,4720
2018-05-21T05:53:21.892Z,4752
2018-05-21T05:54:21.936Z,4784
2018-05-21T05:55:21.963Z,4804
2018-05-21T05:56:21.986Z,4828
2018-05-21T05:57:21.760Z,4848
2018-05-21T05:58:22.028Z,4872
2018-05-21T05:59:22.049Z,4900
2018-05-21T06:00:22.077Z,4928
2018-05-21T06:01:22.099Z,4948
2018-05-21T06:02:22.126Z,4968
2018-05-21T06:03:22.193Z,4992
2018-05-21T06:04:22.158Z,5012
2018-05-21T06:05:22.184Z,5036
2018-05-21T06:06:21.970Z,5060
2018-05-21T06:07:21.969Z,5084
2018-05-21T06:08:22.246Z,5104
2018-05-21T06:09:22.276Z,5124
2018-05-21T06:10:22.043Z,5152
2018-05-21T06:11:22.320Z,5172
2018-05-21T06:12:22.086Z,5192
2018-05-21T06:13:22.108Z,5208
2018-05-21T06:14:21.873Z,5232
2018-05-21T06:15:22.408Z,5256
2018-05-21T06:16:22.171Z,5320
2018-05-21T06:17:22.446Z,5372
2018-05-21T06:18:21.968Z,5408
2018-05-21T06:19:22.495Z,5432
2018-05-21T06:20:22.264Z,5440
2018-05-21T06:21:22.280Z,5444
2018-05-21T06:22:22.057Z,5480
2018-05-21T06:23:22.582Z,5504
2018-05-21T06:24:22.096Z,5524
2018-05-21T06:25:22.710Z,5540
2018-05-21T06:26:22.667Z,5544
2018-05-21T06:27:22.684Z,5564
2018-05-21T06:28:22.452Z,5596
2018-05-21T06:29:22.727Z,5620
2018-05-21T06:30:22.743Z,5640
2018-05-21T06:31:22.514Z,5660
2018-05-21T06:32:22.537Z,5684
2018-05-21T06:33:22.571Z,5704
2018-05-21T06:34:23.524Z,5728
2018-05-21T06:35:22.352Z,5748
2018-05-21T06:36:22.971Z,5760
2018-05-21T06:37:22.909Z,5788
2018-05-21T06:38:22.927Z,5840
2018-05-21T06:39:22.972Z,5864
2018-05-21T06:40:22.981Z,5872
2018-05-21T06:41:23.086Z,5864
2018-05-21T06:42:23.023Z,5836
2018-05-21T06:43:23.054Z,5812
2018-05-21T06:44:22.866Z,5820
2018-05-21T06:45:22.835Z,5848
2018-05-21T06:46:23.115Z,5880
2018-05-21T06:47:23.141Z,5908
2018-05-21T06:48:23.163Z,5940
2018-05-21T06:49:23.186Z,5960
2018-05-21T06:50:22.699Z,5976
2018-05-21T06:51:22.982Z,5976
2018-05-21T06:52:23.253Z,5972
2018-05-21T06:53:23.272Z,5984
2018-05-21T06:54:23.044Z,5984
2018-05-21T06:55:23.319Z,5984
2018-05-21T06:56:23.357Z,5992
2018-05-21T06:57:23.389Z,6012
2018-05-21T06:58:22.883Z,6032
2018-05-21T06:59:22.957Z,6036
2018-05-21T07:00:23.432Z,6060
2018-05-21T07:01:23.306Z,6076
2018-05-21T07:02:23.497Z,6096
2018-05-21T07:03:23.514Z,6100
2018-05-21T07:04:23.531Z,6108
2018-05-21T07:05:23.553Z,6124
2018-05-21T07:06:23.329Z,6148
2018-05-21T07:07:23.623Z,6164
2018-05-21T07:08:23.382Z,6176
2018-05-21T07:09:23.399Z,6184
2018-05-21T07:10:23.425Z,6208
2018-05-21T07:11:23.721Z,6240
2018-05-21T07:12:23.485Z,6260
2018-05-21T07:13:23.744Z,6272
2018-05-21T07:14:23.820Z,6296
2018-05-21T07:15:23.543Z,6316
2018-05-21T07:16:23.830Z,6332
2018-05-21T07:17:23.587Z,6356
2018-05-21T07:18:24.145Z,6376
2018-05-21T07:19:23.889Z,6372
2018-05-21T07:20:23.661Z,6384
2018-05-21T07:21:23.934Z,6396
2018-05-21T07:22:23.712Z,6412
2018-05-21T07:23:23.730Z,6428
2018-05-21T07:24:24.123Z,6436
2018-05-21T07:25:24.033Z,6440
2018-05-21T07:26:24.065Z,6468
2018-05-21T07:27:23.571Z,6528
2018-05-21T07:28:23.849Z,6648
2018-05-21T07:29:25.376Z,6804
2018-05-21T07:30:24.166Z,6688
2018-05-21T07:31:23.940Z,6480
2018-05-21T07:32:24.227Z,6460
2018-05-21T07:33:24.233Z,6456
2018-05-21T07:34:24.251Z,6476
2018-05-21T07:35:24.252Z,6484
2018-05-21T07:36:23.777Z,6492
2018-05-21T07:37:24.300Z,6504
2018-05-21T07:38:24.068Z,6436
2018-05-21T07:39:23.843Z,6440
2018-05-21T07:40:24.393Z,6440
2018-05-21T07:41:24.144Z,6444
2018-05-21T07:42:24.420Z,6452
2018-05-21T07:43:24.448Z,6460
2018-05-21T07:44:24.270Z,6472
2018-05-21T07:45:24.491Z,6492
2018-05-21T07:46:24.517Z,6520
2018-05-21T07:47:24.291Z,6520
2018-05-21T07:48:24.586Z,6544
2018-05-21T07:49:24.590Z,6560
2018-05-21T07:50:24.381Z,6572
2018-05-21T07:51:24.947Z,6580
2018-05-21T07:52:24.444Z,6600
2018-05-21T07:53:24.460Z,6608
2018-05-21T07:54:24.494Z,6632
2018-05-21T07:55:24.512Z,6624
2018-05-21T07:56:24.521Z,6644
2018-05-21T07:57:24.816Z,6660
2018-05-21T07:58:24.793Z,6676
2018-05-21T07:59:24.991Z,6704
2018-05-21T08:00:24.882Z,6708
2018-05-21T08:01:24.651Z,6716
2018-05-21T08:02:24.929Z,6740
2018-05-21T08:03:24.706Z,6760
2018-05-21T08:04:24.979Z,6768
2018-05-21T08:05:25.312Z,6800
2018-05-21T08:06:25.028Z,6828
2018-05-21T08:07:24.798Z,6844
2018-05-21T08:08:24.835Z,6860
2018-05-21T08:09:25.101Z,6872
2018-05-21T08:10:25.116Z,6912
2018-05-21T08:11:24.888Z,6932
2018-05-21T08:12:24.913Z,6980
2018-05-21T08:13:25.195Z,7012
2018-05-21T08:14:25.361Z,7048
2018-05-21T08:15:25.264Z,7076
2018-05-21T08:16:25.285Z,7100
2018-05-21T08:17:25.049Z,7328
2018-05-21T08:18:24.809Z,7352
2018-05-21T08:19:25.402Z,7372
2018-05-21T08:20:25.118Z,7408
2018-05-21T08:21:24.887Z,7428
2018-05-21T08:22:24.934Z,7448
2018-05-21T08:23:25.202Z,7480
2018-05-21T08:24:25.775Z,7520
2018-05-21T08:25:25.245Z,7564
2018-05-21T08:26:25.516Z,7604
2018-05-21T08:27:25.604Z,7680
2018-05-21T08:28:25.589Z,7736
2018-05-21T08:29:25.460Z,7768
2018-05-21T08:30:25.627Z,7796
2018-05-21T08:31:25.661Z,7824
2018-05-21T08:32:25.420Z,7836
2018-05-21T08:33:25.721Z,7848
2018-05-21T08:34:25.831Z,7900
2018-05-21T08:35:25.502Z,7912
2018-05-21T08:36:25.779Z,7928
2018-05-21T08:37:25.558Z,7948
2018-05-21T08:38:25.329Z,8020
2018-05-21T08:39:25.596Z,8036
2018-05-21T08:40:25.894Z,8044
2018-05-21T08:41:25.910Z,8052
2018-05-21T08:42:25.679Z,8064
2018-05-21T08:43:25.703Z,8100
2018-05-21T08:44:26.029Z,8128
2018-05-21T08:45:25.755Z,8144
2018-05-21T08:46:25.885Z,8168
2018-05-21T08:47:26.064Z,8200
2018-05-21T08:48:26.232Z,8220
2018-05-21T08:49:26.111Z,8232
2018-05-21T08:50:26.129Z,8268
2018-05-21T08:51:25.899Z,8292
2018-05-21T08:52:26.451Z,8276
2018-05-21T08:53:25.956Z,8336
2018-05-21T08:54:26.235Z,8348
2018-05-21T08:55:26.372Z,8368
2018-05-21T08:56:26.320Z,8356
2018-05-21T08:57:26.317Z,8392
2018-05-21T08:58:26.084Z,8408
2018-05-21T08:59:26.174Z,8396
2018-05-21T09:00:26.617Z,8428
2018-05-21T09:01:26.420Z,8472
2018-05-21T09:02:26.443Z,8488
2018-05-21T09:03:26.218Z,8516
2018-05-21T09:04:26.246Z,8540
2018-05-21T09:05:26.520Z,8560
2018-05-21T09:06:26.552Z,8592
2018-05-21T09:07:26.580Z,8604
2018-05-21T09:08:26.613Z,8600
2018-05-21T09:09:26.400Z,8616
2018-05-21T09:10:26.656Z,8604
2018-05-21T09:11:26.677Z,8624
2018-05-21T09:12:26.972Z,8612
2018-05-21T09:13:26.750Z,8644
2018-05-21T09:14:26.553Z,8648
2018-05-21T09:15:26.791Z,8688
2018-05-21T09:16:27.050Z,8712
2018-05-21T09:17:26.580Z,8744
2018-05-21T09:18:26.615Z,8752
2018-05-21T09:19:26.635Z,8804
2018-05-21T09:20:26.917Z,8784
2018-05-21T09:21:26.673Z,8824
2018-05-21T09:22:26.695Z,8840
2018-05-21T09:23:26.722Z,8844
2018-05-21T09:24:26.497Z,8824
2018-05-21T09:25:27.031Z,8840
2018-05-21T09:26:26.551Z,8852
2018-05-21T09:27:26.582Z,8884
2018-05-21T09:28:26.859Z,8920
2018-05-21T09:29:27.189Z,8968
2018-05-21T09:30:26.907Z,9008
2018-05-21T09:31:27.518Z,9028
2018-05-21T09:32:27.529Z,9068
2018-05-21T09:33:27.261Z,9096
2018-05-21T09:34:26.784Z,9120
2018-05-21T09:35:27.318Z,9544
2018-05-21T09:36:26.597Z,10124
2018-05-21T09:37:27.114Z,10384
2018-05-21T09:38:27.157Z,10436
2018-05-21T09:39:27.423Z,10496
2018-05-21T09:40:27.212Z,10604
2018-05-21T09:41:27.225Z,10720
2018-05-21T09:42:26.738Z,10728
2018-05-21T09:43:27.268Z,10812
2018-05-21T09:44:27.359Z,10820
2018-05-21T09:45:27.593Z,10832
2018-05-21T09:46:27.356Z,10932
2018-05-21T09:47:27.390Z,10952
2018-05-21T09:48:26.906Z,11028
2018-05-21T09:49:27.448Z,11172
2018-05-21T09:50:27.729Z,11224
2018-05-21T09:51:27.759Z,11268
2018-05-21T09:52:27.781Z,11308
2018-05-21T09:53:27.812Z,11360
2018-05-21T09:54:27.885Z,11448
2018-05-21T09:55:27.864Z,11532
2018-05-21T09:56:27.642Z,11624
2018-05-21T09:57:27.930Z,11704
2018-05-21T09:58:27.693Z,11840
2018-05-21T09:59:28.036Z,11940
2018-05-21T10:00:28.017Z,12056
2018-05-21T10:01:28.040Z,12040
2018-05-21T10:02:28.076Z,12148
2018-05-21T10:03:28.101Z,12236
2018-05-21T10:04:27.931Z,12380
2018-05-21T10:05:28.163Z,12500
2018-05-21T10:06:27.682Z,12628
2018-05-21T10:07:27.969Z,12780
2018-05-21T10:08:28.244Z,12932
2018-05-21T10:09:28.024Z,13020
2018-05-21T10:10:28.319Z,13180
2018-05-21T10:11:28.098Z,13396
2018-05-21T10:12:28.385Z,13828
2018-05-21T10:13:28.412Z,14156
2018-05-21T10:14:28.511Z,14348
2018-05-21T10:15:28.231Z,14720
2018-05-21T10:16:28.512Z,16288
2018-05-21T10:17:28.553Z,18656
2018-05-21T10:18:28.319Z,20288
2018-05-21T10:19:28.953Z,20320
2018-05-21T10:20:28.643Z,18112
2018-05-21T10:21:28.669Z,15200
2018-05-21T10:22:28.449Z,13304
2018-05-21T10:23:28.754Z,13112
2018-05-21T10:24:28.527Z,13096
2018-05-21T10:25:28.538Z,13092
2018-05-21T10:26:28.844Z,13160
2018-05-21T10:27:28.603Z,13192
2018-05-21T10:28:28.892Z,13152
2018-05-21T10:29:28.473Z,12968
2018-05-21T10:30:28.958Z,13040
2018-05-21T10:31:29.008Z,13072
2018-05-21T10:32:28.769Z,13060
2018-05-21T10:33:29.053Z,13204
2018-05-21T10:34:28.578Z,13260
2018-05-21T10:35:29.124Z,13216
2018-05-21T10:36:29.156Z,13340
2018-05-21T10:37:29.137Z,13424
2018-05-21T10:38:29.218Z,13340
2018-05-21T10:39:29.252Z,13436
2018-05-21T10:40:29.286Z,13544
2018-05-21T10:41:29.062Z,13496
2018-05-21T10:42:29.099Z,13556
2018-05-21T10:43:29.130Z,13620
2018-05-21T10:44:29.492Z,13652
2018-05-21T10:45:28.945Z,13752
2018-05-21T10:46:28.980Z,13716
2018-05-21T10:47:29.011Z,13620
2018-05-21T10:48:29.050Z,13684
2018-05-21T10:49:29.644Z,13736
2018-05-21T10:50:29.630Z,13772
2018-05-21T10:51:29.927Z,14204
2018-05-21T10:52:29.182Z,14412
2018-05-21T10:53:29.461Z,14336
2018-05-21T10:54:29.935Z,14304
2018-05-21T10:55:29.278Z,14568
2018-05-21T10:56:29.779Z,14860
2018-05-21T10:57:29.645Z,15120
2018-05-21T10:58:29.883Z,15112
2018-05-21T10:59:29.203Z,15420
2018-05-21T11:00:29.955Z,15472
2018-05-21T11:01:29.851Z,15708
2018-05-21T11:02:30.038Z,16184
2018-05-21T11:03:30.054Z,16608
2018-05-21T11:04:29.849Z,16800
2018-05-21T11:05:29.867Z,16576
2018-05-21T11:06:29.898Z,16352
2018-05-21T11:07:30.193Z,15560
2018-05-21T11:08:30.234Z,14804
2018-05-21T11:09:30.010Z,14628
2018-05-21T11:10:30.039Z,14652
2018-05-21T11:11:29.819Z,14808
2018-05-21T11:12:30.361Z,15124
2018-05-21T11:13:30.429Z,16500
2018-05-21T11:14:30.516Z,18560
2018-05-21T11:15:29.955Z,18656
2018-05-21T11:16:30.246Z,18816
2018-05-21T11:17:30.535Z,21536
2018-05-21T11:18:30.563Z,22592
2018-05-21T11:19:30.344Z,22560
2018-05-21T11:20:30.126Z,24192
2018-05-21T11:21:30.418Z,24992
2018-05-21T11:22:30.702Z,24544
2018-05-21T11:23:30.501Z,24416
2018-05-21T11:24:30.265Z,24480
2018-05-21T11:25:30.300Z,25248
2018-05-21T11:26:30.591Z,25632
2018-05-21T11:27:30.885Z,26016
2018-05-21T11:28:30.680Z,28064
2018-05-21T11:29:31.103Z,32160
2018-05-21T11:30:30.723Z,33568
2018-05-21T11:31:30.768Z,33120
2018-05-21T11:32:31.044Z,32896
2018-05-21T11:33:31.080Z,31552
2018-05-21T11:34:30.967Z,35616
2018-05-21T11:35:30.909Z,41184
2018-05-21T11:36:31.197Z,40384
2018-05-21T11:37:30.714Z,37920
2018-05-21T11:38:31.261Z,35136
2018-05-21T11:39:31.044Z,33216
2018-05-21T11:40:31.375Z,28032
2018-05-21T11:41:31.371Z,22688
2018-05-21T11:42:31.151Z,21760
2018-05-21T11:43:31.186Z,23008
2018-05-21T11:44:31.018Z,24832
2018-05-21T11:45:31.259Z,27136
2018-05-21T11:46:31.816Z,31328
2018-05-21T11:47:31.544Z,38048
2018-05-21T11:48:31.356Z,43200
2018-05-21T11:49:31.651Z,42464
2018-05-21T11:50:31.702Z,41152
2018-05-21T11:51:31.723Z,40960
2018-05-21T11:52:31.846Z,41120
2018-05-21T11:53:31.549Z,42304
2018-05-21T11:54:31.570Z,42176
2018-05-21T11:55:31.873Z,44672
2018-05-21T11:56:31.909Z,46720
2018-05-21T11:57:31.684Z,47584
2018-05-21T11:58:31.721Z,47328
2018-05-21T11:59:31.828Z,47200
2018-05-21T12:00:32.043Z,47744
2018-05-21T12:01:32.086Z,46848
2018-05-21T12:02:31.863Z,49536
2018-05-21T12:03:32.152Z,50720
2018-05-21T12:04:31.945Z,47296
2018-05-21T12:05:32.225Z,48224
2018-05-21T12:06:32.260Z,50016
2018-05-21T12:07:32.055Z,50880
2018-05-21T12:08:31.831Z,48640
2018-05-21T12:09:32.113Z,48512
2018-05-21T12:10:32.150Z,51456
2018-05-21T12:11:32.444Z,52992
2018-05-21T12:12:32.475Z,52448
2018-05-21T12:13:32.375Z,50560
2018-05-21T12:14:32.707Z,50784
2018-05-21T12:15:32.588Z,51264
2018-05-21T12:16:32.701Z,49440
2018-05-21T12:17:32.409Z,45760
2018-05-21T12:18:32.452Z,45376
2018-05-21T12:19:32.713Z,47680
2018-05-21T12:20:32.747Z,49056
2018-05-21T12:21:32.287Z,52640
2018-05-21T12:22:33.030Z,37920
2018-05-21T12:23:32.608Z,53408
2018-05-21T12:24:32.902Z,55456
2018-05-21T12:25:32.936Z,58048
2018-05-21T12:26:32.970Z,57888
2018-05-21T12:27:32.750Z,57760
2018-05-21T12:28:32.819Z,16640
2018-05-21T12:29:33.155Z,15828
2018-05-21T12:30:33.138Z,14532
2018-05-21T12:31:33.156Z,12784
2018-05-21T12:32:33.199Z,11140
2018-05-21T12:33:33.234Z,10836
2018-05-21T12:34:33.292Z,11024
2018-05-21T12:35:33.066Z,11112
2018-05-21T12:36:33.354Z,11416
2018-05-21T12:37:33.395Z,12212
2018-05-21T12:38:33.423Z,13392
2018-05-21T12:39:33.207Z,26880
2018-05-21T12:40:33.502Z,48416
2018-05-21T12:41:33.531Z,16456
2018-05-21T12:42:33.557Z,22688
2018-05-21T12:43:33.594Z,64480
2018-05-21T12:44:33.427Z,63744
2018-05-21T12:45:33.679Z,62400
2018-05-21T12:46:33.700Z,58336
2018-05-21T12:47:33.484Z,27648
2018-05-21T12:48:33.515Z,25440
2018-05-21T12:49:33.548Z,48032
2018-05-21T12:50:33.582Z,60832
2018-05-21T12:51:33.872Z,58848
2018-05-21T12:52:33.904Z,55520
2018-05-21T12:53:33.687Z,57792
2018-05-21T12:54:34.105Z,56320
2018-05-21T12:55:33.513Z,54112
2018-05-21T12:56:34.054Z,51392
2018-05-21T12:57:34.096Z,50656
2018-05-21T12:58:34.120Z,18528
2018-05-21T12:59:34.209Z,15812
2018-05-21T13:00:34.188Z,18464
2018-05-21T13:01:33.966Z,27488
2018-05-21T13:02:34.257Z,52512
2018-05-21T13:03:34.035Z,62336
2018-05-21T13:04:34.327Z,66432
2018-05-21T13:05:34.123Z,67296
2018-05-21T13:06:34.153Z,66336
2018-05-21T13:07:34.442Z,66944
2018-05-21T13:08:34.224Z,66816
2018-05-21T13:09:34.563Z,66528
2018-05-21T13:10:34.627Z,64608
2018-05-21T13:11:34.335Z,62208
2018-05-21T13:12:34.361Z,58240
2018-05-21T13:13:34.407Z,44480
2018-05-21T13:14:34.689Z,31744
2018-05-21T13:15:34.809Z,33440
2018-05-21T13:16:34.772Z,18912
2018-05-21T13:17:34.547Z,66336
2018-05-21T13:18:34.839Z,30720
2018-05-21T13:19:34.895Z,20128
2018-05-21T13:20:34.910Z,17792
2018-05-21T13:21:34.963Z,21664
2018-05-21T13:22:34.732Z,16964
2018-05-21T13:23:34.771Z,19168
2018-05-21T13:24:35.102Z,65376
2018-05-21T13:25:34.839Z,15452
2018-05-21T13:26:35.184Z,14676
2018-05-21T13:27:35.168Z,15420
2018-05-21T13:28:34.697Z,16272
2018-05-21T13:29:35.281Z,18400
2018-05-21T13:30:35.039Z,20256
2018-05-21T13:31:35.139Z,31104